Time;durP1;ratioP1;P1;durP2;ratioP2;P2;SDS_P1;SDS_P2;PMS_P1;PMS_P2;Temp;Humidity;BMP_temperature;BMP_pressure;BME280_temperature;BME280_humidity;BME280_pressure;Samples;Min_cycle;Max_cycle;Signal;HPM_P1;HPM_P2
2021/10/31 00:00:29;;;;;;;8.90;2.55;;;8.70;99.90;;;;;;5085133;28;20059;-81
2021/10/31 00:02:57;;;;;;;8.52;3.25;;;8.70;99.90;;;;;;5056808;28;20048;-79
2021/10/31 00:05:26;;;;;;;9.80;3.75;;;8.70;99.90;;;;;;5085022;28;20075;-75
2021/10/31 00:07:54;;;;;;;17.85;3.80;;;8.70;99.90;;;;;;5084964;28;20044;-79
2021/10/31 00:10:22;;;;;;;10.88;3.83;;;8.80;99.90;;;;;;5087244;28;20559;-75
2021/10/31 00:12:50;;;;;;;8.05;3.40;;;7.90;99.90;;;;;;5084963;28;20058;-78
2021/10/31 00:15:19;;;;;;;7.20;2.95;;;8.70;99.90;;;;;;5084446;28;20044;-79
2021/10/31 00:17:48;;;;;;;9.27;2.78;;;8.80;99.90;;;;;;5091849;28;20043;-76
2021/10/31 00:20:16;;;;;;;6.05;2.97;;;8.70;99.90;;;;;;5080285;28;20041;-79
2021/10/31 00:22:45;;;;;;;7.45;3.83;;;8.70;99.90;;;;;;5088279;28;20068;-83
2021/10/31 00:25:14;;;;;;;9.07;3.10;;;8.60;99.90;;;;;;5082979;28;20048;-79
2021/10/31 00:27:43;;;;;;;14.02;3.15;;;8.70;99.90;;;;;;5091305;28;20059;-75
2021/10/31 00:30:11;;;;;;;8.30;2.92;;;8.70;99.90;;;;;;5084759;28;20048;-79
2021/10/31 00:32:40;;;;;;;8.65;2.88;;;8.60;99.90;;;;;;5087147;28;20048;-79
2021/10/31 00:35:09;;;;;;;13.88;3.47;;;8.60;99.90;;;;;;5053137;28;20047;-78
2021/10/31 00:37:37;;;;;;;13.38;3.60;;;8.60;99.90;;;;;;5086052;28;20044;-79
2021/10/31 00:40:08;;;;;;;12.73;2.85;;;8.60;99.90;;;;;;5086923;28;20048;-78
2021/10/31 00:42:36;;;;;;;8.00;3.15;;;8.60;99.90;;;;;;5104096;28;20055;-82
2021/10/31 00:45:06;;;;;;;5.68;2.35;;;8.50;99.90;;;;;;5086088;28;20058;-78
2021/10/31 00:47:36;;;;;;;5.75;2.78;;;8.50;99.90;;;;;;5104001;28;20048;-80
2021/10/31 00:50:05;;;;;;;11.68;3.60;;;8.60;99.90;;;;;;5069639;28;20047;-80
2021/10/31 00:52:34;;;;;;;7.82;2.28;;;8.60;99.90;;;;;;5069932;28;20056;-79
2021/10/31 00:55:03;;;;;;;11.57;3.35;;;8.60;99.90;;;;;;5093388;28;20048;-83
2021/10/31 00:57:32;;;;;;;8.38;2.85;;;8.60;99.90;;;;;;5072879;28;20056;-83
2021/10/31 01:00:00;;;;;;;15.98;4.32;;;8.60;99.90;;;;;;5099197;28;20050;-76
2021/10/31 01:02:28;;;;;;;11.48;3.38;;;8.70;99.90;;;;;;5082811;28;20218;-81
2021/10/31 01:05:01;;;;;;;9.52;3.85;;;8.60;99.90;;;;;;5067473;28;20048;-76
2021/10/31 01:07:59;;;;;;;11.48;3.92;;;8.60;99.90;;;;;;5084322;28;20070;-79
2021/10/31 01:10:30;;;;;;;8.38;3.55;;;8.70;99.90;;;;;;5102966;28;20040;-79
2021/10/31 01:13:01;;;;;;;13.25;4.85;;;8.70;99.90;;;;;;5081272;28;20052;-79
2021/10/31 01:15:42;;;;;;;14.48;3.85;;;8.70;99.90;;;;;;5081565;28;20051;-77
2021/10/31 01:18:22;;;;;;;12.40;4.38;;;8.70;99.90;;;;;;5103602;28;20054;-77
2021/10/31 01:21:09;;;;;;;12.60;3.30;;;8.70;99.90;;;;;;5096946;28;20047;-78
2021/10/31 01:24:18;;;;;;;8.73;2.88;;;8.70;99.90;;;;;;5088136;28;20052;-78
2021/10/31 01:27:09;;;;;;;11.05;3.63;;;8.70;99.90;;;;;;5070550;28;20056;-80
2021/10/31 01:30:14;;;;;;;9.20;3.05;;;8.70;99.90;;;;;;5098414;28;20059;-77
2021/10/31 01:32:55;;;;;;;11.80;3.35;;;8.70;99.90;;;;;;5042272;28;20049;-79
2021/10/31 01:35:53;;;;;;;10.37;3.50;;;8.70;99.90;;;;;;5095460;28;20049;-78
2021/10/31 01:38:33;;;;;;;7.63;2.97;;;8.70;99.90;;;;;;5083631;28;20048;-78
2021/10/31 01:41:17;;;;;;;8.90;3.10;;;8.70;99.90;;;;;;5074667;28;20044;-80
2021/10/31 01:44:05;;;;;;;11.32;3.58;;;8.70;99.90;;;;;;5119048;28;20043;-76
2021/10/31 01:47:01;;;;;;;11.63;3.55;;;8.70;99.90;;;;;;5093752;28;20048;-77
2021/10/31 01:49:43;;;;;;;12.75;5.05;;;8.80;99.90;;;;;;5094449;28;20048;-80
2021/10/31 01:52:37;;;;;;;19.15;4.05;;;8.80;99.90;;;;;;5087420;28;20048;-81
2021/10/31 01:55:28;;;;;;;5.38;2.60;;;8.80;99.90;;;;;;5088951;28;20074;-77
2021/10/31 01:57:59;;;;;;;8.93;3.65;;;8.80;99.90;;;;;;5106485;28;20058;-78
2021/10/31 02:00:31;;;;;;;7.82;2.75;;;8.90;99.90;;;;;;5088532;28;20048;-76
2021/10/31 02:03:02;;;;;;;8.27;3.17;;;8.90;99.90;;;;;;5072970;28;20044;-77
2021/10/31 02:05:33;;;;;;;;;;;8.90;99.90;;;;;;5072463;28;20059;-81
2021/10/31 02:08:05;;;;;;;11.45;4.32;;;8.90;99.90;;;;;;5082875;28;19920;-77
2021/10/31 02:10:35;;;;;;;18.67;2.72;;;9.00;99.90;;;;;;5120736;28;20056;-77
2021/10/31 02:13:04;;;;;;;10.00;4.50;;;9.00;99.90;;;;;;5073282;28;20056;-78
2021/10/31 02:15:34;;;;;;;15.63;2.85;;;8.90;99.90;;;;;;5111647;28;20143;-79
2021/10/31 02:18:03;;;;;;;12.95;4.22;;;9.00;99.90;;;;;;5079437;28;20055;-78
2021/10/31 02:20:31;;;;;;;17.00;4.78;;;9.00;99.90;;;;;;5095700;28;20048;-79
2021/10/31 02:23:03;;;;;;;10.85;3.05;;;9.00;99.90;;;;;;5074236;28;20051;-77
2021/10/31 02:25:33;;;;;;;10.25;4.10;;;8.90;99.90;;;;;;5090824;28;20032;-80
2021/10/31 02:28:03;;;;;;;7.88;3.88;;;8.90;99.90;;;;;;5102784;28;20396;-78
2021/10/31 02:30:32;;;;;;;12.00;3.67;;;8.90;99.90;;;;;;5103099;28;20123;-77
2021/10/31 02:33:01;;;;;;;13.95;3.55;;;8.90;99.90;;;;;;5100331;28;20036;-79
2021/10/31 02:35:29;;;;;;;11.43;3.97;;;8.90;99.90;;;;;;5081654;28;20054;-78
2021/10/31 02:37:57;;;;;;;12.80;2.78;;;8.90;99.90;;;;;;5073606;28;20045;-78
2021/10/31 02:40:26;;;;;;;9.50;4.15;;;8.90;99.90;;;;;;5087047;28;20055;-78
2021/10/31 02:42:54;;;;;;;9.27;3.85;;;8.90;99.90;;;;;;5103968;28;20068;-77
2021/10/31 02:45:22;;;;;;;17.00;4.35;;;8.90;99.90;;;;;;5107497;28;20048;-77
2021/10/31 02:47:55;;;;;;;9.07;2.78;;;8.90;99.90;;;;;;5097854;28;20060;-79
2021/10/31 02:50:31;;;;;;;12.50;3.33;;;8.80;99.90;;;;;;5071719;28;20051;-78
2021/10/31 02:53:23;;;;;;;6.65;2.80;;;8.80;99.90;;;;;;5087660;28;20071;-79
2021/10/31 02:56:25;;;;;;;12.18;3.08;;;8.80;99.90;;;;;;5104161;28;20036;-79
2021/10/31 02:59:05;;;;;;;8.55;3.15;;;8.80;99.90;;;;;;5102829;28;20052;-76
2021/10/31 03:01:35;;;;;;;11.20;2.80;;;8.80;99.90;;;;;;5082498;28;20056;-77
2021/10/31 03:04:04;;;;;;;11.85;3.72;;;8.80;99.90;;;;;;5105437;28;20048;-77
2021/10/31 03:06:33;;;;;;;13.73;3.40;;;8.70;99.90;;;;;;5071591;28;20040;-79
2021/10/31 03:09:00;;;;;;;17.33;4.47;;;8.70;99.90;;;;;;5086984;28;20131;-78
2021/10/31 03:11:29;;;;;;;9.80;3.53;;;8.80;99.90;;;;;;5113734;28;20063;-79
2021/10/31 03:13:57;;;;;;;8.80;3.15;;;8.70;99.90;;;;;;5088409;28;20557;-78
2021/10/31 03:16:25;;;;;;;9.68;3.30;;;8.70;99.90;;;;;;5106499;28;20057;-78
2021/10/31 03:18:53;;;;;;;10.82;3.17;;;8.70;99.90;;;;;;5088400;28;20056;-79
2021/10/31 03:21:21;;;;;;;19.42;4.70;;;8.70;99.90;;;;;;5102033;28;20059;-79
2021/10/31 03:23:50;;;;;;;13.55;5.47;;;8.70;99.90;;;;;;5080905;28;20056;-77
2021/10/31 03:26:18;;;;;;;10.20;4.70;;;8.90;99.90;;;;;;5103309;28;20047;-77
2021/10/31 03:28:46;;;;;;;15.73;3.53;;;8.60;99.90;;;;;;5085548;28;20060;-78
2021/10/31 03:31:14;;;;;;;18.10;4.10;;;8.70;99.90;;;;;;5102887;28;20052;-77
2021/10/31 03:33:43;;;;;;;8.75;3.35;;;8.70;99.90;;;;;;5073495;28;20071;-78
2021/10/31 03:36:11;;;;;;;12.02;3.00;;;8.80;99.90;;;;;;5069498;28;20048;-77
2021/10/31 03:38:39;;;;;;;8.73;4.18;;;8.70;99.90;;;;;;5092491;28;20051;-77
2021/10/31 03:41:07;;;;;;;11.35;3.42;;;8.90;99.90;;;;;;5125596;28;20040;-78
2021/10/31 03:43:36;;;;;;;10.90;3.15;;;8.80;99.90;;;;;;5106307;28;20047;-78
2021/10/31 03:46:05;;;;;;;9.50;3.20;;;8.90;99.90;;;;;;5099318;28;20047;-76
2021/10/31 03:48:33;;;;;;;6.72;3.10;;;9.00;99.90;;;;;;5078968;28;20052;-79
2021/10/31 03:51:01;;;;;;;14.48;4.20;;;9.10;99.90;;;;;;5113657;28;20047;-77
2021/10/31 03:53:30;;;;;;;11.70;3.42;;;9.20;99.90;;;;;;5111891;28;20048;-77
2021/10/31 03:55:58;;;;;;;7.65;3.28;;;9.40;99.90;;;;;;5104486;28;20052;-80
2021/10/31 03:58:27;;;;;;;13.05;3.00;;;9.50;99.90;;;;;;5091691;28;20063;-78
2021/10/31 04:01:00;;;;;;;7.75;2.63;;;9.60;99.90;;;;;;5104371;28;20044;-76
2021/10/31 04:03:29;;;;;;;11.25;4.40;;;9.70;99.90;;;;;;5107870;28;20047;-77
2021/10/31 04:05:57;;;;;;;10.10;3.45;;;9.80;99.90;;;;;;5101903;28;20428;-79
2021/10/31 04:08:25;;;;;;;11.75;3.00;;;9.90;99.90;;;;;;5097355;28;20055;-76
2021/10/31 04:10:53;;;;;;;14.50;3.67;;;10.00;99.90;;;;;;5103417;28;20502;-79
2021/10/31 04:13:22;;;;;;;16.98;2.70;;;9.30;99.90;;;;;;5124442;28;20051;-77
2021/10/31 04:15:51;;;;;;;6.75;3.10;;;10.20;99.90;;;;;;5117867;28;20059;-78
2021/10/31 04:18:19;;;;;;;14.65;3.45;;;10.20;99.90;;;;;;5068529;28;20044;-77
2021/10/31 04:20:48;;;;;;;12.70;5.20;;;10.30;99.90;;;;;;5113077;28;20054;-78
2021/10/31 04:23:16;;;;;;;8.70;3.92;;;10.30;99.90;;;;;;5086769;28;20057;-77
2021/10/31 04:25:44;;;;;;;8.68;3.08;;;10.30;99.90;;;;;;5104954;28;20044;-77
2021/10/31 04:28:13;;;;;;;13.63;2.55;;;10.30;99.90;;;;;;5098867;28;20504;-76
2021/10/31 04:30:43;;;;;;;10.10;2.58;;;10.30;99.90;;;;;;5081824;28;20934;-80
2021/10/31 04:33:12;;;;;;;10.23;3.17;;;10.40;99.90;;;;;;5099236;28;20035;-76
2021/10/31 04:35:40;;;;;;;8.05;3.10;;;10.40;99.90;;;;;;5107406;28;20043;-78
2021/10/31 04:38:30;;;;;;;11.80;3.08;;;10.40;99.90;;;;;;5112583;28;20047;-78
2021/10/31 04:40:58;;;;;;;12.45;3.72;;;10.40;99.90;;;;;;5103151;28;20051;-79
2021/10/31 04:43:27;;;;;;;16.08;4.63;;;10.40;99.90;;;;;;5101178;28;20036;-77
2021/10/31 04:45:55;;;;;;;13.60;2.80;;;10.40;99.90;;;;;;5072939;28;20055;-76
2021/10/31 04:48:24;;;;;;;10.90;3.05;;;10.50;99.90;;;;;;5082552;28;20062;-77
2021/10/31 04:50:54;;;;;;;11.60;2.97;;;10.50;99.90;;;;;;5114504;28;20051;-77
2021/10/31 04:53:22;;;;;;;14.25;2.47;;;10.50;99.90;;;;;;5090289;28;20506;-80
2021/10/31 04:55:50;;;;;;;15.65;4.78;;;10.60;99.90;;;;;;5094696;28;20041;-77
2021/10/31 04:58:18;;;;;;;12.88;3.33;;;10.60;99.90;;;;;;5078949;28;20049;-78
2021/10/31 05:00:47;;;;;;;10.98;2.13;;;10.70;99.90;;;;;;5103408;28;20044;-78
2021/10/31 05:03:15;;;;;;;12.90;4.20;;;10.70;99.90;;;;;;5103654;28;20078;-78
2021/10/31 05:05:44;;;;;;;28.10;4.93;;;10.70;99.90;;;;;;5104521;28;20055;-77
2021/10/31 05:08:11;;;;;;;15.65;3.05;;;10.70;99.90;;;;;;5100518;28;20040;-77
2021/10/31 05:10:39;;;;;;;22.27;3.90;;;10.80;99.90;;;;;;5104306;28;20059;-78
2021/10/31 05:13:07;;;;;;;19.58;3.75;;;10.80;99.90;;;;;;5106394;28;20085;-79
2021/10/31 05:15:36;;;;;;;8.20;3.58;;;10.80;99.90;;;;;;5125002;28;20066;-78
2021/10/31 05:18:06;;;;;;;13.18;3.70;;;10.80;99.90;;;;;;5097731;28;20048;-79
2021/10/31 05:20:35;;;;;;;9.43;2.15;;;10.90;99.90;;;;;;5106839;28;20044;-81
2021/10/31 05:23:03;;;;;;;10.35;2.63;;;10.90;99.90;;;;;;5106648;28;20054;-79
2021/10/31 05:25:31;;;;;;;14.85;2.78;;;10.90;99.90;;;;;;5107077;28;20043;-78
2021/10/31 05:27:59;;;;;;;16.80;3.30;;;10.90;99.90;;;;;;5107194;28;20044;-79
2021/10/31 05:30:28;;;;;;;9.55;3.03;;;11.00;99.90;;;;;;5090262;28;20047;-79
2021/10/31 05:32:56;;;;;;;10.35;3.47;;;11.00;99.90;;;;;;5089382;28;20059;-78
2021/10/31 05:35:25;;;;;;;10.48;3.50;;;11.00;99.90;;;;;;5088246;28;20052;-80
2021/10/31 05:37:57;;;;;;;20.25;4.25;;;11.00;99.90;;;;;;5098811;28;20044;-80
2021/10/31 05:40:26;;;;;;;13.27;3.22;;;11.10;99.90;;;;;;5108241;28;20369;-83
2021/10/31 05:42:55;;;;;;;12.93;2.78;;;11.10;99.90;;;;;;5076216;28;20039;-82
2021/10/31 05:45:24;;;;;;;13.80;2.72;;;11.10;99.90;;;;;;5102609;28;20044;-80
2021/10/31 05:47:53;;;;;;;13.05;3.20;;;11.10;99.90;;;;;;5080251;28;20044;-81
2021/10/31 05:50:22;;;;;;;15.98;4.10;;;11.20;99.90;;;;;;5104860;28;20040;-81
2021/10/31 05:52:49;;;;;;;10.20;2.95;;;11.20;99.90;;;;;;5069380;28;20052;-78
2021/10/31 05:55:18;;;;;;;13.95;2.80;;;11.20;99.90;;;;;;5086223;28;20040;-80
2021/10/31 05:57:47;;;;;;;14.02;3.50;;;11.30;99.90;;;;;;5088724;28;20056;-82
2021/10/31 06:00:17;;;;;;;16.40;3.88;;;11.30;99.90;;;;;;5072370;28;20056;-79
2021/10/31 06:02:46;;;;;;;11.38;2.92;;;11.30;99.90;;;;;;5088384;28;20048;-80
2021/10/31 06:05:15;;;;;;;14.05;3.20;;;11.30;99.90;;;;;;5069644;28;20062;-78
2021/10/31 06:07:43;;;;;;;15.68;3.35;;;11.40;99.90;;;;;;5039507;28;20048;-76
2021/10/31 06:10:12;;;;;;;8.85;3.22;;;11.40;99.90;;;;;;5067045;28;20210;-78
2021/10/31 06:12:45;;;;;;;7.03;2.58;;;11.50;99.90;;;;;;5104885;28;20051;-78
2021/10/31 06:15:16;;;;;;;6.45;2.92;;;11.50;99.90;;;;;;5086211;28;20056;-78
2021/10/31 06:17:45;;;;;;;18.45;3.92;;;11.50;99.90;;;;;;5099240;28;20040;-77
2021/10/31 06:20:15;;;;;;;10.45;2.80;;;11.60;99.90;;;;;;4755047;28;10000560;-77
2021/10/31 06:22:43;;;;;;;8.85;3.97;;;11.60;99.90;;;;;;5058658;28;20050;-79
2021/10/31 06:25:13;;;;;;;15.75;3.50;;;11.70;99.90;;;;;;5077088;28;20052;-81
2021/10/31 06:27:41;;;;;;;9.20;3.03;;;11.70;99.90;;;;;;5081570;28;20398;-80
2021/10/31 06:30:10;;;;;;;8.73;2.47;;;11.70;99.90;;;;;;5086116;28;20052;-78
2021/10/31 06:32:41;;;;;;;6.15;2.15;;;11.80;99.90;;;;;;5104593;28;20372;-79
2021/10/31 06:35:09;;;;;;;6.18;3.03;;;11.80;99.90;;;;;;5091017;28;20058;-80
2021/10/31 06:37:37;;;;;;;10.85;3.30;;;11.80;99.90;;;;;;5094642;28;20044;-78
2021/10/31 06:40:06;;;;;;;16.73;4.57;;;11.90;99.90;;;;;;5081074;28;20048;-78
2021/10/31 06:42:35;;;;;;;10.55;3.30;;;11.90;99.90;;;;;;5101954;28;20040;-79
2021/10/31 06:45:03;;;;;;;10.20;3.03;;;11.90;99.90;;;;;;5081515;28;20044;-78
2021/10/31 06:47:32;;;;;;;13.77;3.75;;;11.90;99.90;;;;;;5082789;28;20075;-78
2021/10/31 06:50:01;;;;;;;8.95;2.88;;;11.90;99.90;;;;;;5075908;28;20048;-79
2021/10/31 06:52:32;;;;;;;16.08;4.05;;;12.00;99.90;;;;;;5100181;28;20383;-79
2021/10/31 06:55:01;;;;;;;13.38;4.13;;;12.00;99.90;;;;;;5102728;28;20048;-80
2021/10/31 06:57:30;;;;;;;13.77;2.80;;;12.00;99.90;;;;;;5075355;28;20035;-79
2021/10/31 06:59:58;;;;;;;7.18;2.80;;;12.00;99.90;;;;;;5088252;28;20052;-78
2021/10/31 07:02:26;;;;;;;10.65;3.05;;;12.00;99.90;;;;;;5088461;28;20083;-79
2021/10/31 07:04:54;;;;;;;9.73;2.38;;;12.00;99.90;;;;;;5101028;28;20051;-80
2021/10/31 07:07:23;;;;;;;12.02;3.05;;;12.00;99.90;;;;;;5098613;28;20043;-79
2021/10/31 07:09:51;;;;;;;11.27;3.72;;;12.00;99.90;;;;;;5121749;28;20062;-79
2021/10/31 07:12:19;;;;;;;10.90;3.53;;;12.10;99.90;;;;;;5121835;28;20038;-79
2021/10/31 07:14:47;;;;;;;9.50;2.78;;;12.10;99.90;;;;;;5111589;28;20062;-80
2021/10/31 07:17:15;;;;;;;19.42;6.03;;;12.10;99.90;;;;;;5099384;28;20047;-80
2021/10/31 07:19:43;;;;;;;7.82;2.53;;;12.10;99.90;;;;;;5054604;28;20051;-80
2021/10/31 07:22:11;;;;;;;5.70;2.25;;;12.10;99.90;;;;;;5111687;28;20055;-79
2021/10/31 07:24:40;;;;;;;13.52;2.38;;;12.10;99.90;;;;;;5104418;28;20062;-80
2021/10/31 07:27:10;;;;;;;9.02;2.58;;;12.10;99.90;;;;;;5076122;28;20048;-80
2021/10/31 07:29:38;;;;;;;10.63;2.40;;;12.00;99.90;;;;;;5100632;28;20089;-80
2021/10/31 07:32:07;;;;;;;7.85;3.08;;;12.10;99.90;;;;;;5122423;28;20047;-80
2021/10/31 07:34:35;;;;;;;7.72;2.17;;;12.10;99.90;;;;;;5101285;28;20066;-81
2021/10/31 07:37:04;;;;;;;7.47;1.95;;;12.10;99.90;;;;;;5075675;28;20043;-79
2021/10/31 07:39:35;;;;;;;10.77;3.47;;;12.00;99.90;;;;;;5122792;28;20047;-80
2021/10/31 07:42:03;;;;;;;4.38;1.58;;;12.00;99.90;;;;;;5105230;28;20036;-80
2021/10/31 07:44:31;;;;;;;8.80;1.40;;;12.00;99.90;;;;;;5099014;28;20563;-80
2021/10/31 07:46:59;;;;;;;4.22;1.58;;;12.00;99.90;;;;;;5101962;28;20048;-81
2021/10/31 07:49:27;;;;;;;2.55;1.48;;;12.00;99.90;;;;;;5102028;28;20638;-80
2021/10/31 07:51:56;;;;;;;6.78;1.55;;;12.00;99.90;;;;;;5104221;28;20043;-81
2021/10/31 07:54:26;;;;;;;13.25;3.45;;;12.00;99.90;;;;;;5062392;28;20048;-83
2021/10/31 07:56:58;;;;;;;8.70;2.30;;;12.00;99.90;;;;;;5075503;28;20056;-80
2021/10/31 07:59:26;;;;;;;4.95;1.67;;;12.00;99.90;;;;;;5058990;28;20051;-79
2021/10/31 08:01:55;;;;;;;2.72;1.48;;;12.00;99.90;;;;;;5101867;28;20063;-79
2021/10/31 08:04:28;;;;;;;5.88;1.95;;;12.10;99.90;;;;;;5093041;28;20036;-81
2021/10/31 08:06:57;;;;;;;6.38;1.95;;;12.00;99.90;;;;;;5075293;28;20049;-83
2021/10/31 08:09:26;;;;;;;12.13;2.75;;;12.10;99.90;;;;;;5058258;28;20048;-83
2021/10/31 08:12:04;;;;;;;8.52;2.17;;;12.10;99.90;;;;;;5074313;28;20051;-83
2021/10/31 08:14:48;;;;;;;6.13;2.17;;;12.10;99.90;;;;;;5043644;28;20045;-80
2021/10/31 08:17:16;;;;;;;11.48;3.28;;;12.10;99.90;;;;;;5084000;28;20043;-82
2021/10/31 08:19:51;;;;;;;10.77;2.30;;;12.10;99.90;;;;;;5063185;28;20063;-82
2021/10/31 08:22:19;;;;;;;11.20;1.95;;;12.10;99.90;;;;;;5077021;28;20047;-79
2021/10/31 08:24:53;;;;;;;11.15;3.63;;;12.20;99.90;;;;;;5072036;28;20053;-81
2021/10/31 08:27:23;;;;;;;;;;;12.10;99.90;;;;;;5076842;28;20049;-84
2021/10/31 08:29:55;;;;;;;6.90;2.17;;;12.20;99.90;;;;;;5057734;28;19920;-82
2021/10/31 08:32:28;;;;;;;7.43;2.00;;;12.20;99.90;;;;;;5057147;28;20048;-80
2021/10/31 08:34:59;;;;;;;11.18;2.78;;;12.70;99.90;;;;;;5075585;28;20047;-85
2021/10/31 08:37:28;;;;;;;;;;;12.20;99.90;;;;;;5076863;28;20040;-82
2021/10/31 08:40:13;;;;;;;6.03;2.47;;;10.90;99.90;;;;;;5063990;28;19921;-82
2021/10/31 08:42:41;;;;;;;6.72;2.30;;;12.20;99.90;;;;;;5076343;28;20665;-83
2021/10/31 08:45:11;;;;;;;10.13;3.25;;;11.60;99.90;;;;;;5061945;28;20049;-82
2021/10/31 08:47:48;;;;;;;4.53;2.25;;;12.30;99.90;;;;;;5080355;28;20044;-82
2021/10/31 08:50:17;;;;;;;11.20;3.05;;;12.30;99.90;;;;;;5061182;28;20053;-83
2021/10/31 08:52:48;;;;;;;11.25;3.05;;;12.30;99.90;;;;;;5091665;28;20061;-83
2021/10/31 08:55:20;;;;;;;7.07;3.00;;;12.30;99.90;;;;;;5047281;28;20073;-82
2021/10/31 08:57:49;;;;;;;5.57;1.75;;;12.40;99.90;;;;;;5093083;28;20809;-82
2021/10/31 09:00:23;;;;;;;6.32;2.25;;;12.40;99.90;;;;;;5043518;28;20063;-83
2021/10/31 09:02:55;;;;;;;5.47;1.92;;;12.40;99.90;;;;;;5075955;28;20044;-82
2021/10/31 09:05:24;;;;;;;5.60;1.65;;;12.40;99.90;;;;;;5076671;28;20040;-81
2021/10/31 09:07:54;;;;;;;3.78;1.85;;;12.50;99.90;;;;;;5073814;28;20051;-82
2021/10/31 09:10:22;;;;;;;2.70;2.00;;;12.60;99.90;;;;;;5090352;28;20059;-83
2021/10/31 09:12:50;;;;;;;6.70;2.47;;;12.50;99.90;;;;;;5075241;28;20041;-82
2021/10/31 09:15:20;;;;;;;10.73;3.40;;;12.60;99.90;;;;;;5096442;28;20043;-81
2021/10/31 09:17:49;;;;;;;12.90;3.60;;;12.60;99.90;;;;;;5072375;28;20040;-82
2021/10/31 09:20:18;;;;;;;5.55;2.50;;;12.60;99.90;;;;;;5077196;28;20055;-82
2021/10/31 09:22:48;;;;;;;11.60;3.00;;;12.70;99.90;;;;;;5059939;28;20052;-82
2021/10/31 09:25:17;;;;;;;11.15;2.17;;;12.70;99.90;;;;;;5041566;28;20063;-80
2021/10/31 09:27:45;;;;;;;16.35;3.00;;;12.30;99.90;;;;;;5077171;28;20055;-80
2021/10/31 09:30:14;;;;;;;6.05;1.85;;;12.80;99.90;;;;;;5077323;28;20629;-81
2021/10/31 09:32:45;;;;;;;6.70;2.53;;;12.80;99.90;;;;;;5094551;28;20036;-79
2021/10/31 09:35:26;;;;;;;18.83;4.78;;;12.80;99.90;;;;;;5077747;28;20062;-80
2021/10/31 09:38:01;;;;;;;8.23;2.77;;;12.80;99.90;;;;;;5048518;28;20052;-79
2021/10/31 09:40:33;;;;;;;12.25;2.40;;;12.90;99.90;;;;;;5076002;28;20055;-82
2021/10/31 09:43:06;;;;;;;4.10;2.03;;;12.90;99.90;;;;;;5075121;28;20048;-80
2021/10/31 09:45:36;;;;;;;7.03;1.65;;;12.90;99.90;;;;;;5073820;28;20032;-80
2021/10/31 09:48:16;;;;;;;9.23;3.05;;;13.00;99.90;;;;;;5087112;23;20450;-93
2021/10/31 09:51:01;;;;;;;12.68;2.53;;;13.10;99.90;;;;;;5073289;28;20048;-95
2021/10/31 09:54:03;;;;;;;5.45;2.22;;;13.10;99.90;;;;;;5088986;28;20066;-93
2021/10/31 09:56:36;;;;;;;7.63;2.55;;;12.60;99.90;;;;;;5077278;28;20045;-92
2021/10/31 09:59:13;;;;;;;9.65;2.20;;;13.20;99.90;;;;;;5060499;28;20044;-92
2021/10/31 10:02:11;;;;;;;7.65;2.33;;;13.20;99.90;;;;;;5063811;28;20052;-92
2021/10/31 10:05:01;;;;;;;14.07;5.70;;;13.20;99.90;;;;;;5040017;28;20058;-93
2021/10/31 10:08:16;;;;;;;12.55;2.72;;;13.10;99.90;;;;;;5056641;28;20067;-91
2021/10/31 10:11:22;;;;;;;16.40;2.92;;;13.00;99.90;;;;;;5080643;28;20101;-94
2021/10/31 10:14:24;;;;;;;11.30;2.00;;;13.20;99.90;;;;;;5080347;28;20051;-92
2021/10/31 10:17:02;;;;;;;4.97;1.63;;;13.20;99.90;;;;;;5032991;28;20049;-91
2021/10/31 10:19:35;;;;;;;8.85;2.28;;;13.20;99.90;;;;;;5044078;28;20044;-91
2021/10/31 10:22:17;;;;;;;7.85;2.75;;;13.00;99.90;;;;;;5036261;28;20044;-91
2021/10/31 10:24:59;;;;;;;8.18;2.03;;;13.20;99.90;;;;;;5066290;28;20052;-90
2021/10/31 10:27:45;;;;;;;10.43;3.65;;;13.20;99.90;;;;;;5059387;28;20083;-92
2021/10/31 10:30:19;;;;;;;5.32;2.20;;;13.10;99.90;;;;;;5055971;28;20058;-89
2021/10/31 10:32:58;;;;;;;6.85;1.85;;;13.10;99.90;;;;;;5067787;28;20059;-90
2021/10/31 10:35:29;;;;;;;12.85;3.17;;;13.10;99.90;;;;;;5057178;28;20524;-89
2021/10/31 10:38:15;;;;;;;8.38;1.77;;;13.10;99.90;;;;;;5058385;28;20051;-91
2021/10/31 10:40:49;;;;;;;8.80;2.63;;;13.10;99.90;;;;;;5059902;28;20063;-89
2021/10/31 10:43:30;;;;;;;22.20;3.65;;;13.00;99.90;;;;;;5051973;28;20459;-88
2021/10/31 10:46:11;;;;;;;13.10;2.38;;;12.90;99.90;;;;;;5065128;28;20040;-91
2021/10/31 10:48:55;;;;;;;4.05;1.40;;;12.90;99.90;;;;;;5039340;28;20416;-88
2021/10/31 10:51:23;;;;;;;3.05;1.20;;;12.80;99.90;;;;;;5001769;28;20049;-89
2021/10/31 10:54:12;;;;;;;4.72;1.23;;;12.90;99.90;;;;;;5028800;28;20431;-88
2021/10/31 10:57:01;;;;;;;9.55;2.22;;;12.70;99.90;;;;;;5025379;28;20383;-90
2021/10/31 10:59:30;;;;;;;5.40;2.03;;;12.60;99.90;;;;;;5006831;28;20041;-89
2021/10/31 11:02:26;;;;;;;6.57;1.52;;;12.60;99.90;;;;;;5009463;28;20052;-86
2021/10/31 11:05:00;;;;;;;2.88;1.60;;;12.60;99.90;;;;;;5012685;28;20045;-90
2021/10/31 11:07:30;;;;;;;10.02;2.17;;;12.60;99.90;;;;;;5037920;28;20049;-86
2021/10/31 11:10:00;;;;;;;9.05;2.42;;;12.70;99.90;;;;;;5036790;28;20041;-88
2021/10/31 11:12:35;;;;;;;14.77;2.40;;;12.80;99.90;;;;;;5033676;28;20287;-87
2021/10/31 11:15:13;;;;;;;14.00;4.13;;;12.80;99.90;;;;;;5035772;28;20041;-88
2021/10/31 11:17:43;;;;;;;12.20;1.88;;;12.90;99.90;;;;;;5040393;28;20045;-87
2021/10/31 11:20:15;;;;;;;8.25;2.28;;;12.90;99.90;;;;;;5016341;28;20037;-88
2021/10/31 11:22:53;;;;;;;8.98;1.98;;;13.00;99.90;;;;;;5050732;28;20491;-89
2021/10/31 11:25:24;;;;;;;8.15;3.00;;;12.80;99.90;;;;;;4682704;28;10000407;-88
2021/10/31 11:27:59;;;;;;;11.80;1.95;;;12.60;99.90;;;;;;5028411;28;20057;-87
2021/10/31 11:30:30;;;;;;;8.43;2.85;;;12.50;99.90;;;;;;5034472;28;20048;-88
2021/10/31 11:33:01;;;;;;;5.90;1.98;;;12.20;99.90;;;;;;5028581;28;20087;-89
2021/10/31 11:35:30;;;;;;;11.00;1.92;;;12.30;99.90;;;;;;5035779;28;20492;-86
2021/10/31 11:38:04;;;;;;;9.00;1.98;;;12.40;99.90;;;;;;5029076;28;20108;-87
2021/10/31 11:40:48;;;;;;;7.47;2.40;;;12.40;99.90;;;;;;5032973;28;20057;-87
2021/10/31 11:43:26;;;;;;;12.50;3.03;;;12.40;99.90;;;;;;5059427;28;20045;-89
2021/10/31 11:46:01;;;;;;;11.65;2.75;;;12.50;99.90;;;;;;5029601;28;20037;-90
2021/10/31 11:48:35;;;;;;;10.20;2.58;;;12.60;99.90;;;;;;5038789;28;20060;-88
2021/10/31 11:51:13;;;;;;;9.15;3.72;;;12.60;99.90;;;;;;5033008;28;20064;-88
2021/10/31 11:53:55;;;;;;;14.48;2.42;;;12.60;99.90;;;;;;5056938;28;20063;-89
2021/10/31 11:56:51;;;;;;;12.27;3.70;;;12.70;99.90;;;;;;5027297;28;20051;-87
2021/10/31 11:59:22;;;;;;;14.00;2.50;;;12.90;99.90;;;;;;5063440;28;20057;-90
2021/10/31 12:01:56;;;;;;;16.13;4.13;;;13.00;99.90;;;;;;5036216;28;20044;-91
2021/10/31 12:04:58;;;;;;;15.02;3.35;;;13.20;99.90;;;;;;5045136;28;20056;-89
2021/10/31 12:07:47;;;;;;;7.10;2.30;;;13.40;99.90;;;;;;5037112;28;20044;-89
2021/10/31 12:10:35;;;;;;;19.27;6.43;;;13.40;99.90;;;;;;5041167;28;20290;-89
2021/10/31 12:13:18;;;;;;;19.27;5.63;;;12.90;99.90;;;;;;5035543;28;20056;-89
2021/10/31 12:16:15;;;;;;;18.83;4.57;;;13.70;99.90;;;;;;5045631;28;20052;-87
2021/10/31 12:18:56;;;;;;;20.20;3.40;;;13.80;99.90;;;;;;5036414;28;20055;-88
2021/10/31 12:21:33;;;;;;;13.18;3.15;;;13.90;99.90;;;;;;5068983;28;20047;-90
2021/10/31 12:24:10;;;;;;;12.23;3.58;;;13.90;99.90;;;;;;5072825;28;20059;-89
2021/10/31 12:26:54;;;;;;;16.75;3.22;;;14.00;99.90;;;;;;5060960;28;20093;-87
2021/10/31 12:29:27;;;;;;;15.98;3.63;;;14.10;99.90;;;;;;5024971;28;20404;-88
2021/10/31 12:32:07;;;;;;;15.02;3.33;;;14.10;99.90;;;;;;5062350;28;20061;-89
2021/10/31 12:34:41;;;;;;;21.40;3.35;;;14.10;99.90;;;;;;5054127;28;20056;-89
2021/10/31 12:37:30;;;;;;;23.83;5.82;;;14.10;99.90;;;;;;5062835;28;20040;-91
2021/10/31 12:40:16;;;;;;;15.27;3.60;;;14.10;99.90;;;;;;5046701;28;20481;-90
2021/10/31 12:42:59;;;;;;;23.08;6.70;;;14.20;99.90;;;;;;5073854;28;20057;-92
2021/10/31 12:45:29;;;;;;;22.98;4.35;;;14.30;99.90;;;;;;5023076;28;20045;-88
2021/10/31 12:48:09;;;;;;;26.65;4.45;;;15.30;99.90;;;;;;5059924;28;20057;-89
2021/10/31 12:50:48;;;;;;;26.75;4.05;;;14.50;99.90;;;;;;5037242;28;20048;-89
2021/10/31 12:53:16;;;;;;;27.85;4.07;;;14.60;99.90;;;;;;5037859;28;20045;-90
2021/10/31 12:55:45;;;;;;;22.10;4.47;;;14.70;99.90;;;;;;5058664;28;20047;-90
2021/10/31 12:58:21;;;;;;;17.98;4.10;;;14.70;99.90;;;;;;5058978;28;20048;-89
2021/10/31 13:00:54;;;;;;;24.23;2.97;;;14.70;99.90;;;;;;5047920;28;20057;-90
2021/10/31 13:03:34;;;;;;;24.95;5.88;;;14.70;99.90;;;;;;5064409;28;20056;-88
2021/10/31 13:06:50;;;;;;;19.45;5.43;;;14.70;99.90;;;;;;5072670;28;20044;-88
2021/10/31 13:09:30;;;;;;;23.50;5.85;;;13.70;99.90;;;;;;5049544;28;20059;-88
2021/10/31 13:11:58;;;;;;;16.45;3.67;;;14.70;99.90;;;;;;5039381;28;20048;-90
2021/10/31 13:14:31;;;;;;;25.95;5.18;;;14.90;99.90;;;;;;5049319;28;20040;-91
2021/10/31 13:17:06;;;;;;;23.05;3.95;;;15.00;99.90;;;;;;5072976;28;20040;-89